Time;durP1;ratioP1;P1;durP2;ratioP2;P2;SDS_P1;SDS_P2;PMS_P1;PMS_P2;Temp;Humidity;BMP_temperature;BMP_pressure;BME280_temperature;BME280_humidity;BME280_pressure;Samples;Min_cycle;Max_cycle;Signal;HPM_P1;HPM_P2
2022/03/17 00:00:28;;;;;;;74.10;68.70;;;;;;;7.95;100.00;102362.03;2002631;71;32753;-74
2022/03/17 00:06:14;;;;;;;78.30;72.70;;;;;;;7.97;100.00;102383.39;2016867;71;32982;-73
2022/03/17 00:11:58;;;;;;;77.20;71.80;;;;;;;7.99;100.00;102407.54;2000392;71;32841;-75
2022/03/17 00:17:43;;;;;;;76.83;71.70;;;;;;;7.92;100.00;102414.20;2005407;70;32922;-74
2022/03/17 00:23:28;;;;;;;75.27;70.17;;;;;;;7.90;100.00;102419.98;2006196;71;32890;-75
2022/03/17 00:29:18;;;;;;;76.13;70.80;;;;;;;7.88;100.00;102428.18;2016592;71;32831;-74
2022/03/17 00:41:02;;;;;;;76.73;71.63;;;;;;;7.67;100.00;102438.61;2015353;71;32828;-73
2022/03/17 00:46:46;;;;;;;75.30;70.10;;;;;;;7.55;100.00;102448.72;2008071;71;32765;-73
2022/03/17 00:52:30;;;;;;;76.77;71.47;;;;;;;7.48;100.00;102466.45;2000624;71;33320;-75
2022/03/17 00:58:15;;;;;;;79.33;74.00;;;;;;;7.37;100.00;102501.72;2002652;71;32786;-73
2022/03/17 01:03:59;;;;;;;79.17;73.97;;;;;;;7.16;100.00;102504.30;2014652;71;33391;-74
2022/03/17 01:09:43;;;;;;;82.93;77.30;;;;;;;7.05;100.00;102503.11;2016599;71;33330;-73
2022/03/17 01:15:29;;;;;;;79.27;73.97;;;;;;;6.90;100.00;102515.50;2013168;71;32828;-75
2022/03/17 01:21:13;;;;;;;78.73;73.53;;;;;;;6.92;100.00;102524.43;1992035;71;33295;-76
2022/03/17 01:26:58;;;;;;;77.33;72.07;;;;;;;6.76;100.00;102536.28;2013075;71;33390;-73
2022/03/17 01:32:42;;;;;;;75.77;70.47;;;;;;;6.64;100.00;102548.22;2002179;71;32902;-74
2022/03/17 01:38:27;;;;;;;75.93;70.73;;;;;;;6.58;100.00;102557.39;2002522;71;32863;-75
2022/03/17 01:44:12;;;;;;;76.90;71.63;;;;;;;6.58;100.00;102569.82;2000367;70;32907;-74
2022/03/17 01:49:58;;;;;;;74.37;69.03;;;;;;;6.46;100.00;102579.28;2006361;71;32873;-75
2022/03/17 01:55:42;;;;;;;79.33;73.93;;;;;;;6.30;100.00;102594.92;2015132;71;32819;-78
2022/03/17 02:01:27;;;;;;;82.33;77.00;;;;;;;6.33;100.00;102590.38;2017132;71;32832;-79
2022/03/17 02:07:14;;;;;;;79.60;74.53;;;;;;;6.25;100.00;102597.47;2003987;71;33339;-73
2022/03/17 02:13:11;;;;;;;80.77;75.67;;;;;;;6.24;100.00;102609.59;1998609;71;32804;-74
2022/03/17 02:18:55;;;;;;;78.13;72.83;;;;;;;6.21;100.00;102597.05;1994586;71;32838;-74
2022/03/17 02:30:43;;;;;;;77.77;72.37;;;;;;;6.08;100.00;102613.61;2009296;71;33003;-73
2022/03/17 02:36:29;;;;;;;74.03;69.00;;;;;;;6.01;100.00;102622.43;1994607;71;32907;-74
2022/03/17 02:42:14;;;;;;;76.53;71.50;;;;;;;5.99;100.00;102621.78;1991539;71;32997;-75
2022/03/17 02:47:59;;;;;;;75.17;70.07;;;;;;;5.90;100.00;102623.89;2014700;71;32847;-73
2022/03/17 02:53:43;;;;;;;77.90;72.77;;;;;;;5.79;100.00;102632.77;2015153;71;33333;-77
2022/03/17 02:59:27;;;;;;;77.27;72.27;;;;;;;5.76;100.00;102633.73;2002802;71;32831;-75
2022/03/17 03:05:13;;;;;;;82.63;77.33;;;;;;;5.69;100.00;102643.91;1980587;72;32978;-76
2022/03/17 03:10:58;;;;;;;80.77;75.60;;;;;;;5.63;100.00;102653.00;1995339;71;32747;-74
2022/03/17 03:16:43;;;;;;;81.17;75.67;;;;;;;5.40;100.00;102650.07;2009543;71;33381;-73
2022/03/17 03:22:29;;;;;;;85.07;79.63;;;;;;;5.29;100.00;102656.72;1997249;71;32871;-74
2022/03/17 03:28:14;;;;;;;81.87;76.60;;;;;;;5.22;100.00;102666.31;2011401;70;32813;-74
2022/03/17 03:33:58;;;;;;;83.37;77.97;;;;;;;5.20;100.00;102668.97;2018529;71;32824;-75
2022/03/17 03:39:43;;;;;;;81.50;76.40;;;;;;;5.13;100.00;102677.22;2014996;71;32891;-74
2022/03/17 03:45:28;;;;;;;80.03;74.83;;;;;;;5.04;100.00;102688.08;2007795;71;32995;-77
2022/03/17 03:51:12;;;;;;;81.70;76.70;;;;;;;5.09;100.00;102690.22;1997336;71;32826;-74
2022/03/17 03:56:57;;;;;;;80.40;75.20;;;;;;;5.13;100.00;102692.89;1991754;71;33288;-75
2022/03/17 04:02:43;;;;;;;79.70;74.33;;;;;;;4.94;100.00;102708.24;2011771;71;32782;-73
2022/03/17 04:08:27;;;;;;;77.80;72.80;;;;;;;4.92;100.00;102715.31;2016650;71;32826;-72
2022/03/17 04:14:13;;;;;;;74.37;69.47;;;;;;;4.92;100.00;102729.08;1999116;71;33291;-78
2022/03/17 04:19:57;;;;;;;79.10;73.77;;;;;;;4.82;100.00;102738.77;2018531;71;32874;-74
2022/03/17 04:25:41;;;;;;;75.90;70.90;;;;;;;4.98;100.00;102755.83;2013450;71;32836;-75
2022/03/17 04:31:25;;;;;;;78.13;73.03;;;;;;;4.87;100.00;102767.42;2016824;71;32817;-73
2022/03/17 04:37:09;;;;;;;74.90;70.10;;;;;;;4.89;100.00;102774.08;2008366;71;32772;-73
2022/03/17 04:42:54;;;;;;;77.00;71.90;;;;;;;4.63;100.00;102785.73;2014856;71;32826;-76
2022/03/17 04:48:39;;;;;;;74.33;69.33;;;;;;;4.72;100.00;102792.80;2000236;71;32895;-74
2022/03/17 04:54:23;;;;;;;76.10;71.00;;;;;;;4.67;100.00;102804.07;2016872;71;33357;-74
2022/03/17 05:00:10;;;;;;;77.53;72.33;;;;;;;4.61;100.00;102822.25;2006062;71;33419;-75
2022/03/17 05:05:54;;;;;;;71.17;66.13;;;;;;;4.30;100.00;102839.60;1995352;71;32786;-79
2022/03/17 05:11:38;;;;;;;68.83;63.97;;;;;;;4.19;100.00;102860.23;1994979;71;32839;-74
2022/03/17 05:17:22;;;;;;;69.60;64.60;;;;;;;4.29;100.00;102864.02;2016498;71;32843;-75
2022/03/17 05:23:08;;;;;;;70.17;64.90;;;;;;;4.24;100.00;102877.50;2000157;71;33010;-73
2022/03/17 05:28:52;;;;;;;71.70;66.60;;;;;;;4.44;100.00;102878.08;2006366;71;33324;-75
2022/03/17 05:34:36;;;;;;;73.40;68.40;;;;;;;4.42;100.00;102889.80;2002760;71;32777;-79
2022/03/17 05:40:21;;;;;;;74.80;69.40;;;;;;;4.54;100.00;102903.36;2005830;71;32842;-74
2022/03/17 05:46:06;;;;;;;73.80;68.57;;;;;;;4.51;100.00;102911.16;2013066;71;32895;-74
2022/03/17 05:51:50;;;;;;;71.37;66.10;;;;;;;4.33;100.00;102918.47;2002798;71;32836;-75
2022/03/17 05:57:36;;;;;;;72.33;67.13;;;;;;;4.40;100.00;102936.45;2000822;71;33326;-73
2022/03/17 06:03:22;;;;;;;69.53;64.27;;;;;;;4.22;100.00;102950.61;2008351;71;32969;-73
2022/03/17 06:09:06;;;;;;;70.37;65.17;;;;;;;4.22;100.00;102960.77;2000718;71;32818;-77
2022/03/17 06:14:51;;;;;;;66.13;61.23;;;;;;;4.07;100.00;102951.99;2009693;71;32827;-75
2022/03/17 06:20:37;;;;;;;67.07;62.07;;;;;;;3.92;100.00;102973.16;2018535;71;32951;-74
2022/03/17 06:26:22;;;;;;;67.87;62.47;;;;;;;3.84;100.00;102995.25;2002549;71;32762;-74
2022/03/17 06:32:08;;;;;;;72.70;67.40;;;;;;;3.93;100.00;103001.52;2000408;70;32808;-73
2022/03/17 06:37:54;;;;;;;65.70;60.60;;;;;;;3.91;100.00;103015.44;2007578;71;32898;-75
2022/03/17 06:43:39;;;;;;;69.27;63.57;;;;;;;3.97;100.00;103024.32;2016574;71;32956;-74
2022/03/17 06:49:24;;;;;;;66.53;60.87;;;;;;;3.94;100.00;103036.19;1995037;71;32765;-74
2022/03/17 06:55:10;;;;;;;68.83;63.30;;;;;;;4.11;100.00;103042.70;2006671;71;33282;-76
2022/03/17 07:00:55;;;;;;;70.67;65.47;;;;;;;4.15;100.00;103040.97;2015367;71;33417;-75
2022/03/17 07:06:39;;;;;;;70.83;65.67;;;;;;;4.20;100.00;103050.34;2009800;71;33257;-73
2022/03/17 07:12:23;;;;;;;66.93;62.00;;;;;;;4.46;100.00;103062.24;2014893;71;33341;-73
2022/03/17 07:18:07;;;;;;;74.57;69.20;;;;;;;4.43;100.00;103057.98;2014842;71;32893;-75
2022/03/17 07:23:51;;;;;;;71.20;65.80;;;;;;;4.59;100.00;103065.17;2005794;71;32854;-80
2022/03/17 07:29:36;;;;;;;68.43;63.13;;;;;;;4.76;100.00;103065.29;2003860;71;32843;-75
2022/03/17 07:35:23;;;;;;;72.17;66.57;;;;;;;4.76;100.00;103074.93;2010214;71;32810;-74
2022/03/17 07:41:07;;;;;;;71.40;65.60;;;;;;;4.87;100.00;103085.98;2016751;71;32973;-78
2022/03/17 07:46:52;;;;;;;67.13;62.23;;;;;;;4.90;100.00;103091.09;2000986;71;32776;-78
2022/03/17 07:52:36;;;;;;;71.10;65.90;;;;;;;5.17;100.00;103095.02;2016984;71;32838;-75
2022/03/17 07:58:21;;;;;;;70.43;65.10;;;;;;;5.54;100.00;103102.19;2016905;71;32926;-74
2022/03/17 08:04:07;;;;;;;69.07;64.07;;;;;;;5.85;100.00;103102.70;2013794;71;33280;-75
2022/03/17 08:09:51;;;;;;;69.77;64.77;;;;;;;6.05;100.00;103114.78;1996972;71;32784;-72
2022/03/17 08:15:37;;;;;;;70.90;66.00;;;;;;;6.32;100.00;103112.56;2016635;71;33324;-72
2022/03/17 08:21:30;;;;;;;70.60;65.87;;;;;;;6.74;100.00;103122.58;2003948;71;32894;-73
2022/03/17 08:27:14;;;;;;;73.23;68.23;;;;;;;6.98;100.00;103121.72;2007662;71;33439;-73
2022/03/17 08:32:59;;;;;;;69.03;63.93;;;;;;;7.17;100.00;103132.88;2006200;71;32843;-79
2022/03/17 08:38:43;;;;;;;67.37;62.57;;;;;;;7.40;100.00;103137.20;2011260;71;32982;-73
2022/03/17 08:44:27;;;;;;;68.23;63.37;;;;;;;7.70;100.00;103143.52;2004726;71;32921;-80
2022/03/17 08:50:12;;;;;;;67.10;62.20;;;;;;;8.09;100.00;103139.94;2015346;71;33383;-73
2022/03/17 08:55:57;;;;;;;68.03;63.10;;;;;;;8.30;100.00;103154.12;2015079;71;32838;-72
2022/03/17 09:01:42;;;;;;;65.73;60.97;;;;;;;8.59;100.00;103158.37;1995359;71;33239;-72
2022/03/17 09:07:26;;;;;;;66.53;62.03;;;;;;;8.74;100.00;103157.58;2014985;71;32914;-74
2022/03/17 09:13:11;;;;;;;62.17;58.27;;;;;;;9.05;100.00;103166.03;2013079;71;33319;-74
2022/03/17 09:18:56;;;;;;;64.83;60.90;;;;;;;9.11;100.00;103166.52;2000402;71;33282;-71
2022/03/17 09:24:40;;;;;;;64.90;61.00;;;;;;;9.41;100.00;103168.77;2010097;71;32752;-83
2022/03/17 09:30:25;;;;;;;70.40;65.43;;;;;;;9.62;100.00;103169.82;2015071;71;33380;-73
2022/03/17 09:36:10;;;;;;;64.70;60.57;;;;;;;9.69;100.00;103172.02;2016529;71;32843;-73
2022/03/17 09:41:54;;;;;;;63.40;59.70;;;;;;;10.01;100.00;103179.82;2009652;71;32822;-72
2022/03/17 09:47:41;;;;;;;60.87;57.37;;;;;;;9.99;100.00;103178.64;1999005;71;32811;-71
2022/03/17 09:53:27;;;;;;;61.53;57.60;;;;;;;10.36;100.00;103169.92;2006228;71;32798;-85
2022/03/17 09:59:12;;;;;;;59.87;56.23;;;;;;;10.55;100.00;103173.61;2006325;71;32811;-76
2022/03/17 10:04:56;;;;;;;57.20;54.00;;;;;;;10.75;100.00;103172.86;2018509;71;32841;-77
2022/03/17 10:10:43;;;;;;;61.90;58.10;;;;;;;10.72;100.00;103174.72;2010168;71;32813;-72
2022/03/17 10:16:28;;;;;;;65.33;61.23;;;;;;;10.87;100.00;103182.13;2008311;71;33302;-72
2022/03/17 10:22:14;;;;;;;62.47;58.53;;;;;;;10.94;100.00;103190.42;2013324;71;33282;-73
2022/03/17 10:28:07;;;;;;;64.57;60.57;;;;;;;10.84;100.00;103182.61;2014789;71;33409;-73
2022/03/17 10:33:55;;;;;;;55.00;51.93;;;;;;;11.28;100.00;103182.00;2011797;71;32846;-75
2022/03/17 10:39:43;;;;;;;54.90;51.57;;;;;;;11.35;100.00;103185.00;2015067;71;33404;-75
2022/03/17 10:45:32;;;;;;;57.37;54.17;;;;;;;11.32;100.00;103197.14;2015085;71;33381;-73
2022/03/17 10:51:33;;;;;;;56.50;53.40;;;;;;;11.65;100.00;103190.59;2016654;71;31406;-74
2022/03/17 10:57:24;;;;;;;54.80;51.80;;;;;;;11.37;100.00;103194.52;2004176;71;32753;-73
2022/03/17 11:03:10;;;;;;;54.43;51.17;;;;;;;11.56;100.00;103202.27;2014797;71;32818;-72
2022/03/17 11:08:54;;;;;;;44.30;41.93;;;;;;;11.48;100.00;103203.45;2014727;71;30997;-73
2022/03/17 11:14:44;;;;;;;44.33;41.83;;;;;;;11.61;100.00;103201.89;1991631;71;33329;-71
2022/03/17 11:20:31;;;;;;;34.43;32.53;;;;;;;11.72;100.00;103208.64;2013474;71;33389;-72
2022/03/17 11:26:25;;;;;;;32.60;30.70;;;;;;;11.76;100.00;103212.11;2014708;71;32919;-75
2022/03/17 11:32:29;;;;;;;36.53;34.43;;;;;;;11.25;100.00;103201.38;2009364;71;32803;-73
2022/03/17 11:38:30;;;;;;;36.67;34.37;;;;;;;11.88;100.00;103198.77;2011281;71;32806;-72
2022/03/17 11:44:34;;;;;;;36.27;34.20;;;;;;;12.00;100.00;103201.89;2009833;71;32876;-70
2022/03/17 11:50:31;;;;;;;33.40;31.40;;;;;;;12.02;100.00;103207.24;2013239;71;32932;-74
2022/03/17 11:56:29;;;;;;;34.17;32.17;;;;;;;11.91;100.00;103217.23;2002550;71;32748;-70
2022/03/17 12:02:16;;;;;;;35.20;33.40;;;;;;;11.87;100.00;103218.80;2003966;71;32815;-72
2022/03/17 12:08:06;;;;;;;32.10;30.30;;;;;;;12.69;100.00;103228.20;2016890;71;32806;-73
2022/03/17 12:14:24;;;;;;;31.17;29.63;;;;;;;12.66;100.00;103223.12;2000819;71;32746;-72
2022/03/17 12:20:14;;;;;;;32.80;31.30;;;;;;;12.39;100.00;103224.10;1998585;71;33370;-73
2022/03/17 12:26:07;;;;;;;28.47;26.93;;;;;;;12.91;100.00;103232.09;2004430;71;32742;-73
2022/03/17 12:32:00;;;;;;;33.03;31.40;;;;;;;12.89;100.00;103232.02;2016747;70;33348;-73
2022/03/17 12:37:45;;;;;;;28.37;26.80;;;;;;;12.51;100.00;103237.52;2014922;71;33423;-72
2022/03/17 12:43:35;;;;;;;34.03;32.23;;;;;;;12.61;100.00;103246.15;1997263;71;32741;-71
2022/03/17 12:49:20;;;;;;;20.37;19.27;;;;;;;12.93;100.00;103242.98;2004367;71;32770;-72
2022/03/17 12:55:09;;;;;;;23.43;22.33;;;;;;;12.83;100.00;103242.22;2007973;70;32846;-72
2022/03/17 13:00:54;;;;;;;21.03;19.73;;;;;;;12.93;100.00;103252.75;1995008;70;32837;-71
2022/03/17 13:06:56;;;;;;;24.70;23.30;;;;;;;12.67;100.00;103253.53;2013343;71;32891;-76
2022/03/17 13:18:47;;;;;;;19.90;19.00;;;;;;;13.12;100.00;103230.65;2004469;71;32763;-73
2022/03/17 13:24:32;;;;;;;18.43;17.43;;;;;;;13.07;100.00;103231.89;1997090;71;32900;-71
2022/03/17 13:30:18;;;;;;;17.93;16.93;;;;;;;13.10;100.00;103236.47;2012892;71;32904;-71
2022/03/17 13:36:11;;;;;;;18.53;17.53;;;;;;;12.81;100.00;103237.96;2008074;71;33272;-73
2022/03/17 13:42:02;;;;;;;15.93;15.20;;;;;;;12.99;100.00;103232.27;1991410;71;33288;-74
2022/03/17 13:48:06;;;;;;;16.10;15.27;;;;;;;13.23;100.00;103226.98;2007925;71;33344;-75
2022/03/17 13:53:53;;;;;;;15.40;14.60;;;;;;;13.25;100.00;103231.79;2010941;71;32905;-71
2022/03/17 13:59:43;;;;;;;15.30;14.50;;;;;;;13.25;100.00;103242.95;2016379;71;32928;-72
2022/03/17 14:05:28;;;;;;;13.83;13.27;;;;;;;13.56;100.00;103236.91;1977508;72;32900;-71
2022/03/17 14:11:14;;;;;;;14.53;13.73;;;;;;;13.22;100.00;103242.05;2009539;71;32859;-71
2022/03/17 14:16:59;;;;;;;13.20;12.50;;;;;;;13.21;100.00;103244.54;2012565;71;33267;-72
2022/03/17 14:28:46;;;;;;;13.97;13.17;;;;;;;13.28;100.00;103252.22;2000222;71;32770;-71
2022/03/17 14:34:31;;;;;;;12.40;11.70;;;;;;;13.20;100.00;103256.78;1996622;71;32769;-73
2022/03/17 14:40:16;;;;;;;12.10;11.33;;;;;;;13.14;100.00;103260.00;2016410;71;32894;-74
2022/03/17 14:46:00;;;;;;;13.00;12.10;;;;;;;13.51;100.00;103260.57;2015140;70;32960;-74
2022/03/17 14:51:45;;;;;;;11.70;11.10;;;;;;;13.69;100.00;103265.14;2008982;71;32863;-73
2022/03/17 14:57:30;;;;;;;12.50;11.70;;;;;;;13.76;100.00;103263.05;1995022;71;32772;-72
2022/03/17 15:03:14;;;;;;;12.10;11.50;;;;;;;13.84;100.00;103263.19;2018007;71;32882;-70
2022/03/17 15:09:00;;;;;;;15.13;14.03;;;;;;;13.78;100.00;103269.22;2003707;71;32819;-74
2022/03/17 15:14:45;;;;;;;11.43;10.70;;;;;;;13.93;100.00;103261.70;1994855;71;32763;-70
2022/03/17 15:20:30;;;;;;;11.63;10.80;;;;;;;13.63;100.00;103266.12;1998202;70;32891;-70
2022/03/17 15:26:14;;;;;;;11.13;10.53;;;;;;;13.68;100.00;103268.48;2016227;71;32855;-72
2022/03/17 15:31:59;;;;;;;11.33;10.73;;;;;;;13.50;100.00;103281.20;2000626;71;33255;-72
2022/03/17 15:37:45;;;;;;;11.20;10.60;;;;;;;13.54;100.00;103286.59;1998735;71;32763;-73
2022/03/17 15:43:30;;;;;;;11.30;10.30;;;;;;;13.51;100.00;103296.88;2000347;71;32901;-71
2022/03/17 15:49:14;;;;;;;11.30;10.33;;;;;;;13.72;100.00;103303.75;2014677;71;32812;-71
2022/03/17 15:55:00;;;;;;;11.37;10.67;;;;;;;13.61;100.00;103306.85;2018199;71;32918;-71
2022/03/17 16:00:45;;;;;;;10.93;10.13;;;;;;;13.68;100.00;103303.94;2000384;71;32858;-73
2022/03/17 16:06:29;;;;;;;10.43;9.83;;;;;;;13.94;100.00;103311.77;2000048;70;32814;-70
2022/03/17 16:18:15;;;;;;;11.37;10.67;;;;;;;13.81;100.00;103314.84;2012681;71;32814;-73
2022/03/17 16:23:59;;;;;;;11.00;10.50;;;;;;;13.63;100.00;103320.03;2014497;71;32811;-72
2022/03/17 16:29:44;;;;;;;11.50;10.87;;;;;;;13.64;100.00;103313.91;2007346;71;32884;-73
2022/03/17 16:35:28;;;;;;;11.43;10.73;;;;;;;13.54;100.00;103315.06;2003568;71;32887;-72
2022/03/17 16:41:14;;;;;;;11.47;10.77;;;;;;;13.67;100.00;103317.05;2008979;71;33038;-71
2022/03/17 16:46:58;;;;;;;11.57;10.63;;;;;;;13.77;100.00;103322.56;2000537;71;32767;-71
2022/03/17 16:52:45;;;;;;;10.90;10.40;;;;;;;13.49;100.00;103324.17;2009701;71;33245;-71
2022/03/17 16:58:30;;;;;;;10.43;9.90;;;;;;;13.50;100.00;103325.89;2014505;71;32825;-72
2022/03/17 17:04:14;;;;;;;11.07;10.10;;;;;;;13.51;100.00;103340.16;2016361;71;32828;-70
2022/03/17 17:09:58;;;;;;;11.37;10.57;;;;;;;13.45;100.00;103351.44;2007300;71;32867;-71
2022/03/17 17:15:43;;;;;;;10.53;9.93;;;;;;;13.37;100.00;103369.41;2014567;71;32837;-72
2022/03/17 17:21:27;;;;;;;10.20;9.60;;;;;;;13.25;100.00;103378.87;2005972;71;32833;-75
2022/03/17 17:33:13;;;;;;;10.27;9.57;;;;;;;13.25;100.00;103392.84;2014815;71;33265;-70
2022/03/17 17:38:58;;;;;;;11.73;11.03;;;;;;;13.13;100.00;103398.41;2009743;71;33259;-75
2022/03/17 17:44:42;;;;;;;10.63;10.13;;;;;;;12.92;100.00;103408.14;2018316;71;32818;-71
2022/03/17 17:50:27;;;;;;;13.10;12.20;;;;;;;12.57;100.00;103419.74;1991303;71;32792;-73
2022/03/17 17:56:12;;;;;;;12.57;11.87;;;;;;;12.55;100.00;103425.55;2012894;71;32963;-74
2022/03/17 18:01:56;;;;;;;11.83;11.03;;;;;;;12.31;100.00;103433.50;1987636;70;33747;-71
2022/03/17 18:07:42;;;;;;;11.10;10.70;;;;;;;12.46;100.00;103437.25;2005653;71;32814;-70
2022/03/17 18:13:29;;;;;;;12.13;11.37;;;;;;;12.46;100.00;103452.59;2002308;71;32757;-69
2022/03/17 18:19:13;;;;;;;11.97;11.20;;;;;;;12.60;100.00;103454.97;2009528;71;32748;-69
2022/03/17 18:25:00;;;;;;;12.67;12.07;;;;;;;12.45;100.00;103467.64;2000743;71;33232;-71
2022/03/17 18:30:44;;;;;;;12.27;11.37;;;;;;;12.35;100.00;103465.39;2003864;71;33339;-73
2022/03/17 18:36:35;;;;;;;14.70;13.90;;;;;;;12.01;100.00;103481.34;2014765;71;32949;-68
2022/03/17 18:42:21;;;;;;;15.53;14.83;;;;;;;11.88;100.00;103488.44;2009273;71;33410;-73
2022/03/17 18:48:05;;;;;;;13.30;12.60;;;;;;;11.75;100.00;103493.59;2014690;71;32966;-74
2022/03/17 18:53:50;;;;;;;15.00;14.10;;;;;;;11.96;100.00;103514.06;2005460;71;31387;-75
2022/03/17 18:59:35;;;;;;;22.57;21.47;;;;;;;11.50;100.00;103531.70;2000402;71;32868;-77
2022/03/17 19:05:21;;;;;;;33.63;31.73;;;;;;;11.37;100.00;103536.29;1967736;72;32977;-75
2022/03/17 19:11:05;;;;;;;28.43;26.83;;;;;;;11.07;100.00;103531.57;2000610;71;33399;-75
2022/03/17 19:16:51;;;;;;;37.47;35.43;;;;;;;11.08;100.00;103537.45;2005334;71;32922;-69
2022/03/17 19:22:35;;;;;;;46.40;43.90;;;;;;;10.90;100.00;103540.44;2010783;71;32801;-70
2022/03/17 19:28:21;;;;;;;44.03;41.50;;;;;;;10.83;100.00;103557.67;2014637;71;32875;-73
2022/03/17 19:34:06;;;;;;;61.17;57.57;;;;;;;10.40;100.00;103568.52;2010688;71;32959;-74
2022/03/17 19:39:51;;;;;;;60.87;57.57;;;;;;;10.33;100.00;103564.06;2003667;71;33269;-73
2022/03/17 19:45:35;;;;;;;60.87;57.47;;;;;;;10.35;100.00;103575.83;2016556;71;32916;-68
2022/03/17 19:51:20;;;;;;;64.47;60.97;;;;;;;10.10;100.00;103588.11;1994302;71;32896;-68
2022/03/17 19:57:06;;;;;;;69.70;65.80;;;;;;;10.22;100.00;103596.69;1994939;71;32882;-71
2022/03/17 20:02:50;;;;;;;73.90;69.53;;;;;;;10.00;100.00;103599.67;2010702;71;32836;-75
2022/03/17 20:08:35;;;;;;;76.53;71.73;;;;;;;9.78;100.00;103612.58;1991010;71;32864;-70
2022/03/17 20:14:20;;;;;;;78.73;73.73;;;;;;;9.43;100.00;103618.83;1998116;71;32897;-68
2022/03/17 20:20:06;;;;;;;78.70;73.50;;;;;;;9.31;100.00;103620.52;1991102;71;32774;-70
2022/03/17 20:25:51;;;;;;;78.20;73.13;;;;;;;9.55;100.00;103620.77;2014663;71;33447;-68
2022/03/17 20:31:36;;;;;;;74.73;69.63;;;;;;;9.39;100.00;103645.28;2009014;71;32830;-68
2022/03/17 20:37:20;;;;;;;78.30;73.07;;;;;;;9.11;100.00;103653.74;2003610;71;32836;-68
2022/03/17 20:43:04;;;;;;;74.23;68.93;;;;;;;8.96;100.00;103647.47;1996807;71;32781;-72
2022/03/17 20:48:48;;;;;;;74.20;69.30;;;;;;;8.76;100.00;103670.09;2014568;71;33429;-72
2022/03/17 20:54:33;;;;;;;76.90;71.77;;;;;;;8.80;100.00;103666.70;2014535;71;32909;-70
2022/03/17 21:00:20;;;;;;;75.50;70.43;;;;;;;8.71;100.00;103665.16;2004106;71;33412;-68
2022/03/17 21:06:04;;;;;;;76.77;71.57;;;;;;;8.82;100.00;103661.80;2005863;71;32877;-72
2022/03/17 21:11:48;;;;;;;76.20;71.00;;;;;;;8.75;100.00;103650.35;1994927;71;32909;-69
2022/03/17 21:17:34;;;;;;;75.37;70.07;;;;;;;8.61;100.00;103674.35;2002061;71;33528;-68
2022/03/17 21:23:20;;;;;;;75.30;69.97;;;;;;;8.54;100.00;103679.86;2013255;71;33337;-66
2022/03/17 21:29:05;;;;;;;76.97;71.13;;;;;;;8.46;100.00;103687.48;2014410;71;32836;-68
2022/03/17 21:34:52;;;;;;;78.33;72.67;;;;;;;8.65;100.00;103696.44;2014775;71;32879;-71
2022/03/17 21:40:36;;;;;;;78.73;73.47;;;;;;;8.70;100.00;103695.30;2007457;71;33354;-70
2022/03/17 21:46:20;;;;;;;78.07;72.37;;;;;;;8.59;100.00;103705.58;2000547;71;33242;-69
2022/03/17 21:52:08;;;;;;;77.90;72.13;;;;;;;8.09;100.00;103705.23;2012623;71;33038;-67
2022/03/17 21:57:53;;;;;;;77.13;71.40;;;;;;;8.16;100.00;103711.17;2016143;71;32830;-66
2022/03/17 22:03:39;;;;;;;76.90;71.30;;;;;;;8.16;100.00;103711.70;2009065;71;33364;-67
2022/03/17 22:09:23;;;;;;;79.37;73.77;;;;;;;8.23;100.00;103726.45;2009484;71;32860;-66
2022/03/17 22:15:10;;;;;;;78.07;72.47;;;;;;;8.31;100.00;103721.33;2000203;71;32888;-67
2022/03/17 22:20:54;;;;;;;76.47;70.87;;;;;;;8.27;100.00;103731.92;2016309;71;32832;-71
2022/03/17 22:26:42;;;;;;;80.73;75.07;;;;;;;8.21;100.00;103737.72;2011268;71;32868;-69
2022/03/17 22:32:26;;;;;;;80.83;75.13;;;;;;;8.23;100.00;103740.30;2005996;71;33072;-67
2022/03/17 22:38:10;;;;;;;75.90;69.90;;;;;;;7.91;100.00;103748.63;1991037;71;32893;-72
2022/03/17 22:43:56;;;;;;;75.97;70.10;;;;;;;7.82;100.00;103758.63;2010716;71;33019;-66
2022/03/17 22:49:43;;;;;;;77.00;70.83;;;;;;;8.08;100.00;103760.30;2009523;71;33345;-66
2022/03/17 22:55:29;;;;;;;75.07;69.50;;;;;;;7.77;100.00;103766.99;2009096;71;32922;-68
2022/03/17 23:01:14;;;;;;;79.27;73.53;;;;;;;7.67;100.00;103782.17;2002017;71;32905;-69
2022/03/17 23:07:01;;;;;;;79.27;73.10;;;;;;;7.46;100.00;103775.21;1994810;71;32827;-66
2022/03/17 23:12:46;;;;;;;71.27;65.67;;;;;;;7.20;100.00;103792.30;2016270;71;32946;-67
2022/03/17 23:18:32;;;;;;;76.13;70.43;;;;;;;6.93;100.00;103784.14;2003848;71;33368;-68
2022/03/17 23:24:18;;;;;;;74.17;68.60;;;;;;;6.74;100.00;103799.90;1999802;71;32920;-67
2022/03/17 23:30:03;;;;;;;75.73;69.90;;;;;;;6.70;100.00;103811.85;2007782;71;33410;-70
2022/03/17 23:35:47;;;;;;;74.60;68.70;;;;;;;6.84;100.00;103829.52;2018190;71;32928;-69
2022/03/17 23:41:32;;;;;;;76.07;70.33;;;;;;;6.84;100.00;103840.56;2014669;71;32832;-67
2022/03/17 23:47:16;;;;;;;76.30;70.40;;;;;;;6.49;100.00;103856.41;2011488;71;32802;-66
2022/03/17 23:53:01;;;;;;;70.80;65.30;;;;;;;6.63;100.00;103858.38;2008945;71;32896;-71
2022/03/17 23:58:45;;;;;;;71.50;66.00;;;;;;;6.66;100.00;103858.85;2004061;71;32803;-67
